Time;durP1;ratioP1;P1;durP2;ratioP2;P2;SDS_P1;SDS_P2;PMS_P1;PMS_P2;Temp;Humidity;BMP_temperature;BMP_pressure;BME280_temperature;BME280_humidity;BME280_pressure;Samples;Min_cycle;Max_cycle;Signal;HPM_P1;HPM_P2
2023/07/08 00:00:20;;;;;;;3.23;2.93;;;;;;;;;;5053303;28;20452;-46
2023/07/08 00:02:46;;;;;;;5.50;3.20;;;;;;;;;;5053381;28;20405;-46
2023/07/08 00:05:13;;;;;;;4.80;3.60;;;;;;;;;;5053339;28;20409;-52
2023/07/08 00:07:40;;;;;;;6.20;3.60;;;;;;;;;;5053131;28;20951;-49
2023/07/08 00:10:25;;;;;;;4.80;3.20;;;;;;;;;;5053298;28;20990;-47
2023/07/08 00:12:52;;;;;;;4.00;3.33;;;;;;;;;;5047223;28;20385;-46
2023/07/08 00:15:18;;;;;;;3.47;3.17;;;;;;;;;;5053102;28;20922;-46
2023/07/08 00:17:44;;;;;;;5.63;2.90;;;;;;;;;;5053162;28;20430;-46
2023/07/08 00:20:13;;;;;;;3.30;2.87;;;;;;;;;;5052764;28;20409;-46
2023/07/08 00:22:40;;;;;;;3.60;3.37;;;;;;;;;;5052018;28;20408;-47
2023/07/08 00:25:07;;;;;;;8.40;3.20;;;;;;;;;;5052979;28;20527;-46
2023/07/08 00:27:33;;;;;;;3.70;3.10;;;;;;;;;;5052946;28;20437;-50
2023/07/08 00:30:00;;;;;;;5.87;3.20;;;;;;;;;;5052903;28;20463;-47
2023/07/08 00:32:26;;;;;;;3.37;3.07;;;;;;;;;;5051645;28;20401;-49
2023/07/08 00:34:52;;;;;;;4.07;2.97;;;;;;;;;;5052766;28;20409;-50
2023/07/08 00:37:18;;;;;;;3.77;3.40;;;;;;;;;;5052778;28;20514;-50
2023/07/08 00:39:44;;;;;;;3.93;3.60;;;;;;;;;;5052698;28;20417;-47
2023/07/08 00:42:14;;;;;;;3.90;3.60;;;;;;;;;;5053567;28;20401;-53
2023/07/08 00:44:40;;;;;;;5.53;3.10;;;;;;;;;;5044833;28;20444;-53
2023/07/08 00:47:09;;;;;;;3.87;3.57;;;;;;;;;;5052432;28;20412;-53
2023/07/08 00:49:41;;;;;;;4.10;3.70;;;;;;;;;;5052951;28;20431;-51
2023/07/08 00:52:18;;;;;;;4.90;3.20;;;;;;;;;;5048589;28;20405;-50
2023/07/08 00:54:44;;;;;;;3.97;3.10;;;;;;;;;;5051780;28;20439;-53
2023/07/08 00:57:11;;;;;;;4.30;3.23;;;;;;;;;;5052616;28;20496;-52
2023/07/08 00:59:39;;;;;;;5.43;3.57;;;;;;;;;;5052196;28;20402;-52
2023/07/08 01:02:07;;;;;;;3.27;2.97;;;;;;;;;;5051960;28;20420;-53
2023/07/08 01:04:42;;;;;;;7.63;3.47;;;;;;;;;;5051868;28;20416;-53
2023/07/08 01:07:08;;;;;;;3.10;2.90;;;;;;;;;;5051322;28;20558;-53
2023/07/08 01:09:36;;;;;;;3.50;3.20;;;;;;;;;;5051391;28;20421;-53
2023/07/08 01:12:03;;;;;;;4.90;3.40;;;;;;;;;;5052063;28;20442;-53
2023/07/08 01:14:31;;;;;;;3.63;3.33;;;;;;;;;;5052104;28;20417;-53
2023/07/08 01:16:57;;;;;;;4.00;3.60;;;;;;;;;;5051918;28;20464;-51
2023/07/08 01:19:32;;;;;;;7.00;3.43;;;;;;;;;;5051958;28;20431;-50
2023/07/08 01:22:01;;;;;;;6.70;4.10;;;;;;;;;;5052082;28;20405;-54
2023/07/08 01:24:27;;;;;;;4.27;3.43;;;;;;;;;;5051885;28;20414;-53
2023/07/08 01:26:54;;;;;;;3.77;3.47;;;;;;;;;;5051889;28;20416;-50
2023/07/08 01:29:20;;;;;;;4.60;3.50;;;;;;;;;;5051855;28;20412;-51
2023/07/08 01:31:48;;;;;;;4.00;3.47;;;;;;;;;;5051655;28;20407;-50
2023/07/08 01:34:15;;;;;;;6.50;3.80;;;;;;;;;;5051813;28;20911;-48
2023/07/08 01:36:42;;;;;;;8.30;3.30;;;;;;;;;;5051760;28;20460;-48
2023/07/08 01:39:12;;;;;;;5.60;3.27;;;;;;;;;;5051811;28;20670;-49
2023/07/08 01:41:38;;;;;;;3.80;3.27;;;;;;;;;;5044847;28;20401;-48
2023/07/08 01:44:04;;;;;;;5.80;3.17;;;;;;;;;;5051738;28;20819;-48
2023/07/08 01:46:31;;;;;;;4.27;3.80;;;;;;;;;;5051612;28;20618;-48
2023/07/08 01:48:59;;;;;;;3.93;3.63;;;;;;;;;;5051573;28;20432;-49
2023/07/08 01:51:26;;;;;;;4.87;3.60;;;;;;;;;;5051361;28;20895;-50
2023/07/08 01:53:52;;;;;;;5.40;3.73;;;;;;;;;;5051512;28;20412;-48
2023/07/08 01:56:18;;;;;;;3.60;3.30;;;;;;;;;;5051469;28;20468;-49
2023/07/08 01:58:44;;;;;;;5.43;3.40;;;;;;;;;;5051499;28;20425;-50
2023/07/08 02:01:10;;;;;;;3.30;3.10;;;;;;;;;;5051264;28;20409;-51
2023/07/08 02:03:36;;;;;;;3.53;3.23;;;;;;;;;;5051362;28;20409;-50
2023/07/08 02:06:03;;;;;;;3.77;3.37;;;;;;;;;;5051378;28;20393;-50
2023/07/08 02:08:29;;;;;;;4.10;3.63;;;;;;;;;;5051237;28;20444;-49
2023/07/08 02:10:57;;;;;;;4.10;3.70;;;;;;;;;;5051426;28;20376;-49
2023/07/08 02:13:23;;;;;;;3.77;3.33;;;;;;;;;;5051510;28;20409;-48
2023/07/08 02:15:49;;;;;;;3.80;3.50;;;;;;;;;;5051251;28;20460;-48
2023/07/08 02:18:15;;;;;;;2.97;2.77;;;;;;;;;;5051767;28;20439;-50
2023/07/08 02:20:42;;;;;;;3.90;3.57;;;;;;;;;;5055245;28;20415;-51
2023/07/08 02:23:08;;;;;;;3.90;3.50;;;;;;;;;;5055331;28;20411;-48
2023/07/08 02:25:34;;;;;;;3.57;3.27;;;;;;;;;;5055242;28;20454;-49
2023/07/08 02:28:00;;;;;;;4.27;3.87;;;;;;;;;;5055481;28;20428;-48
2023/07/08 02:30:27;;;;;;;4.40;4.00;;;;;;;;;;5055184;28;20487;-48
2023/07/08 02:32:59;;;;;;;4.50;4.10;;;;;;;;;;5049332;28;20370;-49
2023/07/08 02:35:26;;;;;;;4.10;3.50;;;;;;;;;;5055040;28;20388;-49
2023/07/08 02:37:52;;;;;;;4.50;4.10;;;;;;;;;;5055129;28;20517;-49
2023/07/08 02:40:18;;;;;;;3.87;3.43;;;;;;;;;;5054856;28;20463;-48
2023/07/08 02:42:44;;;;;;;4.43;4.10;;;;;;;;;;5055002;28;20468;-48
2023/07/08 02:45:11;;;;;;;4.17;3.87;;;;;;;;;;5054867;28;20818;-48
2023/07/08 02:47:37;;;;;;;4.00;3.70;;;;;;;;;;5054873;28;20440;-49
2023/07/08 02:50:04;;;;;;;4.23;3.40;;;;;;;;;;5054820;28;20572;-49
2023/07/08 02:52:30;;;;;;;4.73;3.53;;;;;;;;;;5054019;28;20404;-52
2023/07/08 02:54:56;;;;;;;4.50;4.10;;;;;;;;;;5054753;28;20380;-50
2023/07/08 02:57:22;;;;;;;4.70;4.23;;;;;;;;;;5045046;28;20463;-51
2023/07/08 02:59:48;;;;;;;4.27;3.93;;;;;;;;;;5053982;28;20904;-50
2023/07/08 03:02:14;;;;;;;4.27;3.93;;;;;;;;;;5054557;28;20424;-53
2023/07/08 03:04:40;;;;;;;4.23;3.47;;;;;;;;;;5054650;28;20409;-52
2023/07/08 03:07:11;;;;;;;4.20;3.90;;;;;;;;;;5054437;28;20426;-52
2023/07/08 03:09:37;;;;;;;4.47;4.07;;;;;;;;;;5054472;28;20423;-48
2023/07/08 03:12:03;;;;;;;4.40;4.10;;;;;;;;;;5054372;28;20417;-51
2023/07/08 03:14:29;;;;;;;4.97;4.43;;;;;;;;;;5054364;28;20586;-51
2023/07/08 03:16:55;;;;;;;4.13;3.83;;;;;;;;;;5054157;28;20806;-53
2023/07/08 03:19:21;;;;;;;5.13;4.73;;;;;;;;;;5054297;28;20760;-53
2023/07/08 03:21:46;;;;;;;3.80;3.50;;;;;;;;;;5054226;28;20794;-53
2023/07/08 03:24:16;;;;;;;6.00;4.23;;;;;;;;;;5054326;28;20791;-51
2023/07/08 03:26:42;;;;;;;6.67;3.77;;;;;;;;;;5054281;28;20905;-53
2023/07/08 03:29:11;;;;;;;6.80;4.53;;;;;;;;;;5053712;28;20417;-52
2023/07/08 03:31:37;;;;;;;4.03;3.73;;;;;;;;;;5052376;28;20407;-51
2023/07/08 03:34:03;;;;;;;4.73;4.30;;;;;;;;;;5054054;28;20501;-53
2023/07/08 03:36:29;;;;;;;4.60;4.10;;;;;;;;;;5054216;28;20429;-51
2023/07/08 03:38:57;;;;;;;4.33;3.70;;;;;;;;;;5053951;28;20489;-53
2023/07/08 03:41:23;;;;;;;5.37;4.00;;;;;;;;;;5053803;28;20881;-50
2023/07/08 03:43:50;;;;;;;4.07;3.47;;;;;;;;;;5053702;28;20414;-50
2023/07/08 03:46:17;;;;;;;5.30;4.80;;;;;;;;;;5053904;28;20406;-53
2023/07/08 03:48:43;;;;;;;5.83;4.17;;;;;;;;;;5053962;28;20516;-53
2023/07/08 03:51:17;;;;;;;4.23;3.93;;;;;;;;;;5053457;28;20876;-53
2023/07/08 03:53:43;;;;;;;4.10;3.63;;;;;;;;;;5050456;28;20407;-53
2023/07/08 03:56:12;;;;;;;4.80;4.30;;;;;;;;;;5053616;28;20963;-51
2023/07/08 03:58:38;;;;;;;4.53;3.90;;;;;;;;;;5036511;28;20449;-53
2023/07/08 04:01:04;;;;;;;4.47;3.60;;;;;;;;;;5053443;28;20386;-53
2023/07/08 04:03:30;;;;;;;5.50;4.33;;;;;;;;;;5053607;28;20418;-53
2023/07/08 04:05:56;;;;;;;5.77;3.60;;;;;;;;;;5053443;28;20416;-53
2023/07/08 04:08:22;;;;;;;4.50;4.10;;;;;;;;;;5053351;28;20802;-52
2023/07/08 04:10:48;;;;;;;4.17;3.87;;;;;;;;;;5036814;28;20433;-52
2023/07/08 04:13:14;;;;;;;3.97;3.70;;;;;;;;;;5053225;28;20423;-52
2023/07/08 04:15:40;;;;;;;4.20;3.90;;;;;;;;;;5053252;28;20404;-51
2023/07/08 04:18:06;;;;;;;4.20;3.80;;;;;;;;;;5053174;28;20986;-50
2023/07/08 04:20:33;;;;;;;5.23;4.67;;;;;;;;;;5061111;28;20426;-51
2023/07/08 04:22:59;;;;;;;4.33;3.93;;;;;;;;;;5053274;28;20893;-51
2023/07/08 04:25:25;;;;;;;5.47;3.97;;;;;;;;;;5052890;28;20390;-52
2023/07/08 04:27:51;;;;;;;5.00;3.90;;;;;;;;;;5053272;28;20942;-52
2023/07/08 04:30:24;;;;;;;4.10;3.80;;;;;;;;;;5052581;28;20913;-52
2023/07/08 04:32:51;;;;;;;4.40;4.03;;;;;;;;;;5049950;28;20430;-49
2023/07/08 04:35:17;;;;;;;5.40;4.90;;;;;;;;;;5050410;28;20413;-50
2023/07/08 04:37:43;;;;;;;7.03;4.50;;;;;;;;;;5052946;28;20461;-50
2023/07/08 04:40:17;;;;;;;4.87;4.27;;;;;;;;;;5052350;28;20381;-50
2023/07/08 04:42:44;;;;;;;5.77;5.00;;;;;;;;;;5049933;28;20512;-46
2023/07/08 04:45:10;;;;;;;4.80;4.30;;;;;;;;;;5053013;28;20773;-46
2023/07/08 04:47:36;;;;;;;4.30;3.90;;;;;;;;;;5052687;28;20406;-47
2023/07/08 04:50:02;;;;;;;4.90;4.00;;;;;;;;;;5052494;28;20456;-47
2023/07/08 04:52:28;;;;;;;4.33;3.93;;;;;;;;;;5059377;28;20413;-49
2023/07/08 04:54:54;;;;;;;5.13;4.73;;;;;;;;;;5052562;28;20460;-50
2023/07/08 04:57:21;;;;;;;6.30;4.13;;;;;;;;;;5052382;28;20710;-46
2023/07/08 04:59:47;;;;;;;8.23;5.10;;;;;;;;;;5052391;28;20953;-51
2023/07/08 05:02:14;;;;;;;5.70;4.60;;;;;;;;;;5052290;28;20387;-51
2023/07/08 05:04:39;;;;;;;6.73;4.70;;;;;;;;;;5052437;28;20790;-48
2023/07/08 05:07:05;;;;;;;4.60;4.07;;;;;;;;;;5052736;28;20430;-49
2023/07/08 05:09:31;;;;;;;6.37;4.23;;;;;;;;;;5037909;28;20437;-48
2023/07/08 05:11:57;;;;;;;7.27;5.10;;;;;;;;;;5052133;28;20389;-51
2023/07/08 05:14:23;;;;;;;5.13;4.43;;;;;;;;;;5052053;28;20389;-47
2023/07/08 05:16:49;;;;;;;4.60;4.20;;;;;;;;;;5052178;28;20510;-48
2023/07/08 05:19:18;;;;;;;5.30;4.80;;;;;;;;;;5051810;28;20401;-47
2023/07/08 05:21:45;;;;;;;4.93;4.43;;;;;;;;;;5051805;28;20901;-50
2023/07/08 05:24:11;;;;;;;4.60;4.20;;;;;;;;;;5052161;28;20385;-48
2023/07/08 05:26:37;;;;;;;5.97;4.43;;;;;;;;;;5052105;28;20412;-50
2023/07/08 05:29:04;;;;;;;4.37;4.07;;;;;;;;;;5051892;28;20410;-49
2023/07/08 05:31:30;;;;;;;5.37;4.87;;;;;;;;;;5041514;28;20819;-48
2023/07/08 05:33:56;;;;;;;5.80;4.53;;;;;;;;;;5053918;28;20422;-52
2023/07/08 05:36:22;;;;;;;5.10;4.60;;;;;;;;;;5033862;28;20993;-52
2023/07/08 05:38:48;;;;;;;7.23;4.33;;;;;;;;;;5051544;28;20446;-49
2023/07/08 05:41:14;;;;;;;5.07;4.57;;;;;;;;;;5049568;28;20423;-50
2023/07/08 05:43:40;;;;;;;5.30;4.90;;;;;;;;;;5032543;28;20453;-51
2023/07/08 05:46:05;;;;;;;4.83;4.50;;;;;;;;;;5050554;28;21032;-46
2023/07/08 05:48:31;;;;;;;4.77;4.33;;;;;;;;;;5050358;28;20421;-47
2023/07/08 05:50:57;;;;;;;6.37;5.10;;;;;;;;;;5050633;28;20514;-48
2023/07/08 05:53:23;;;;;;;5.00;4.50;;;;;;;;;;5050876;28;20419;-48
2023/07/08 05:55:50;;;;;;;8.43;5.37;;;;;;;;;;5051550;28;20456;-48
2023/07/08 05:58:16;;;;;;;7.90;5.17;;;;;;;;;;5051566;28;20409;-47
2023/07/08 06:00:42;;;;;;;5.47;4.97;;;;;;;;;;5051976;28;20465;-47
2023/07/08 06:03:09;;;;;;;5.23;4.73;;;;;;;;;;5051551;28;20968;-47
2023/07/08 06:05:34;;;;;;;5.73;4.93;;;;;;;;;;5051382;28;20761;-47
2023/07/08 06:08:00;;;;;;;5.00;4.60;;;;;;;;;;5051280;28;20461;-46
2023/07/08 06:10:26;;;;;;;5.90;5.23;;;;;;;;;;5051146;28;20412;-47
2023/07/08 06:12:52;;;;;;;11.20;5.20;;;;;;;;;;5051673;28;20466;-47
2023/07/08 06:15:18;;;;;;;5.43;4.73;;;;;;;;;;5051366;28;20459;-47
2023/07/08 06:17:44;;;;;;;6.50;4.70;;;;;;;;;;5051302;28;20563;-48
2023/07/08 06:20:10;;;;;;;5.03;4.63;;;;;;;;;;5055206;28;20871;-49
2023/07/08 06:22:36;;;;;;;4.70;4.30;;;;;;;;;;5051400;28;20839;-50
2023/07/08 06:25:02;;;;;;;7.20;5.00;;;;;;;;;;5051228;28;20436;-47
2023/07/08 06:27:28;;;;;;;7.67;5.13;;;;;;;;;;5051427;28;20804;-54
2023/07/08 06:29:54;;;;;;;4.53;4.10;;;;;;;;;;5051346;28;20451;-53
2023/07/08 06:32:20;;;;;;;5.30;4.20;;;;;;;;;;5033749;28;20819;-53
2023/07/08 06:34:46;;;;;;;6.73;4.37;;;;;;;;;;5051231;28;20441;-49
2023/07/08 06:37:12;;;;;;;5.77;5.20;;;;;;;;;;5051238;28;20825;-52
2023/07/08 06:39:38;;;;;;;4.90;4.47;;;;;;;;;;5051178;28;20768;-49
2023/07/08 06:42:04;;;;;;;5.27;4.77;;;;;;;;;;5051148;28;20829;-49
2023/07/08 06:44:30;;;;;;;5.67;5.07;;;;;;;;;;5051052;28;20409;-49
2023/07/08 06:46:56;;;;;;;5.33;4.83;;;;;;;;;;5051073;28;20412;-51
2023/07/08 06:49:22;;;;;;;5.43;4.53;;;;;;;;;;5050822;28;20421;-51
2023/07/08 06:51:48;;;;;;;5.83;4.77;;;;;;;;;;5050993;28;20411;-50
2023/07/08 06:54:14;;;;;;;5.20;4.60;;;;;;;;;;5050715;28;20424;-49
2023/07/08 06:56:41;;;;;;;7.20;4.73;;;;;;;;;;5050931;28;20449;-49
2023/07/08 06:59:08;;;;;;;6.93;6.23;;;;;;;;;;5050990;28;20429;-50
2023/07/08 07:01:36;;;;;;;5.07;4.67;;;;;;;;;;5050682;28;20488;-48
2023/07/08 07:04:03;;;;;;;6.83;4.80;;;;;;;;;;5051351;28;20415;-50
2023/07/08 07:06:29;;;;;;;5.53;4.77;;;;;;;;;;5054571;28;20855;-49
2023/07/08 07:08:55;;;;;;;5.47;4.93;;;;;;;;;;5054515;28;20425;-48
2023/07/08 07:11:21;;;;;;;9.13;4.73;;;;;;;;;;5054309;28;20522;-50
2023/07/08 07:13:47;;;;;;;5.20;4.40;;;;;;;;;;5054608;28;20413;-49
2023/07/08 07:16:13;;;;;;;5.00;4.50;;;;;;;;;;5054243;28;20453;-52
2023/07/08 07:18:38;;;;;;;7.60;4.10;;;;;;;;;;5054598;28;21056;-48
2023/07/08 07:21:04;;;;;;;4.83;4.43;;;;;;;;;;5054185;28;20810;-52
2023/07/08 07:23:30;;;;;;;7.97;5.27;;;;;;;;;;5054046;28;21002;-49
2023/07/08 07:25:57;;;;;;;8.90;4.33;;;;;;;;;;5054433;28;20421;-49
2023/07/08 07:28:23;;;;;;;7.17;4.83;;;;;;;;;;5054164;28;20437;-49
2023/07/08 07:30:55;;;;;;;5.67;4.60;;;;;;;;;;5053856;28;20410;-52
2023/07/08 07:33:21;;;;;;;5.20;4.70;;;;;;;;;;5054087;28;20420;-51
2023/07/08 07:35:47;;;;;;;6.70;5.77;;;;;;;;;;5053987;28;20409;-48
2023/07/08 07:38:14;;;;;;;6.50;5.10;;;;;;;;;;5054147;28;20460;-50
2023/07/08 07:40:40;;;;;;;4.90;4.50;;;;;;;;;;5053750;28;20419;-50
2023/07/08 07:43:06;;;;;;;6.90;4.53;;;;;;;;;;5054001;28;20445;-50
2023/07/08 07:45:32;;;;;;;5.30;4.90;;;;;;;;;;5053732;28;20452;-50
2023/07/08 07:47:58;;;;;;;6.23;4.83;;;;;;;;;;5053831;28;20436;-49
2023/07/08 07:50:25;;;;;;;7.97;5.03;;;;;;;;;;5053542;28;20961;-49
2023/07/08 07:52:51;;;;;;;5.70;5.13;;;;;;;;;;5053810;28;20953;-48
2023/07/08 07:55:17;;;;;;;9.10;5.67;;;;;;;;;;5053458;28;20408;-49
2023/07/08 07:57:45;;;;;;;5.50;5.00;;;;;;;;;;5053982;28;20536;-49
2023/07/08 08:00:13;;;;;;;7.30;5.27;;;;;;;;;;5052400;28;20818;-49
2023/07/08 08:02:39;;;;;;;7.93;5.20;;;;;;;;;;5053538;28;20414;-51
2023/07/08 08:05:05;;;;;;;5.80;5.17;;;;;;;;;;5053534;28;20420;-49
2023/07/08 08:07:31;;;;;;;8.67;4.90;;;;;;;;;;5053237;28;20905;-49
2023/07/08 08:09:57;;;;;;;6.50;5.23;;;;;;;;;;5052728;28;20420;-49
2023/07/08 08:12:24;;;;;;;5.87;5.07;;;;;;;;;;5053345;28;20490;-49
2023/07/08 08:14:50;;;;;;;5.27;4.77;;;;;;;;;;5053366;28;20843;-49
2023/07/08 08:17:16;;;;;;;6.87;5.20;;;;;;;;;;5052374;28;20472;-49
2023/07/08 08:19:42;;;;;;;6.17;5.57;;;;;;;;;;5052966;28;20504;-49
2023/07/08 08:22:08;;;;;;;6.40;5.30;;;;;;;;;;5053210;28;20409;-49
2023/07/08 08:24:34;;;;;;;10.03;5.43;;;;;;;;;;5053346;28;20415;-49
2023/07/08 08:27:00;;;;;;;7.50;5.50;;;;;;;;;;5053127;28;20449;-51
2023/07/08 08:29:26;;;;;;;5.80;5.30;;;;;;;;;;5053147;28;20423;-49
2023/07/08 08:31:54;;;;;;;6.80;5.47;;;;;;;;;;5052858;28;20886;-49
2023/07/08 08:34:20;;;;;;;5.53;4.90;;;;;;;;;;5052989;28;20903;-51
2023/07/08 08:36:46;;;;;;;7.97;6.43;;;;;;;;;;5052566;28;20455;-52
2023/07/08 08:39:12;;;;;;;10.83;6.13;;;;;;;;;;5052495;28;20888;-49
2023/07/08 08:41:38;;;;;;;5.57;5.07;;;;;;;;;;5052571;28;20435;-49
2023/07/08 08:44:06;;;;;;;6.07;5.40;;;;;;;;;;5052758;28;20420;-52
2023/07/08 08:46:40;;;;;;;6.70;5.60;;;;;;;;;;5052639;28;20512;-49
2023/07/08 08:49:13;;;;;;;8.23;4.93;;;;;;;;;;5052400;28;20433;-50
2023/07/08 08:51:40;;;;;;;5.80;5.30;;;;;;;;;;5043983;28;20400;-50
2023/07/08 08:54:07;;;;;;;6.00;5.40;;;;;;;;;;5052532;28;20421;-51
2023/07/08 08:56:40;;;;;;;6.37;5.60;;;;;;;;;;5052378;28;20461;-51
2023/07/08 08:59:06;;;;;;;5.27;4.67;;;;;;;;;;5052250;28;20991;-49
2023/07/08 09:01:32;;;;;;;5.93;5.33;;;;;;;;;;5052035;28;20413;-49
2023/07/08 09:04:04;;;;;;;8.20;5.80;;;;;;;;;;5052592;28;20511;-50
2023/07/08 09:06:32;;;;;;;10.37;5.07;;;;;;;;;;5052545;28;20436;-49
2023/07/08 09:09:02;;;;;;;5.47;4.97;;;;;;;;;;5052102;28;20440;-50
2023/07/08 09:11:41;;;;;;;5.57;5.07;;;;;;;;;;5052001;28;20421;-49
2023/07/08 09:14:14;;;;;;;4.73;4.33;;;;;;;;;;5050978;28;20398;-52
2023/07/08 09:16:45;;;;;;;6.10;4.80;;;;;;;;;;5050371;28;20809;-49
2023/07/08 09:19:16;;;;;;;6.10;5.20;;;;;;;;;;5050396;28;20482;-50
2023/07/08 09:21:45;;;;;;;5.80;5.13;;;;;;;;;;5051055;28;20745;-50
2023/07/08 09:24:19;;;;;;;6.53;5.47;;;;;;;;;;5050196;28;20419;-49
2023/07/08 09:26:46;;;;;;;5.67;5.17;;;;;;;;;;5051853;28;20424;-49
2023/07/08 09:29:12;;;;;;;6.53;5.33;;;;;;;;;;5051783;28;20434;-50
2023/07/08 09:31:41;;;;;;;5.57;4.50;;;;;;;;;;5051685;28;20789;-49
2023/07/08 09:34:12;;;;;;;5.13;4.60;;;;;;;;;;5051901;28;20179;-49
2023/07/08 09:36:46;;;;;;;5.63;3.87;;;;;;;;;;5051721;28;20516;-48
2023/07/08 09:39:17;;;;;;;7.60;5.50;;;;;;;;;;5051808;28;20923;-48
2023/07/08 09:41:45;;;;;;;5.50;4.80;;;;;;;;;;5051768;28;20484;-49
2023/07/08 09:44:28;;;;;;;11.50;5.73;;;;;;;;;;5051600;28;20795;-48
2023/07/08 09:46:55;;;;;;;5.80;4.63;;;;;;;;;;5051715;28;20415;-48
2023/07/08 09:49:29;;;;;;;13.03;4.50;;;;;;;;;;5051448;28;20906;-49
2023/07/08 09:51:55;;;;;;;9.57;4.70;;;;;;;;;;5051353;28;20504;-49
2023/07/08 09:54:22;;;;;;;4.70;4.30;;;;;;;;;;5051548;28;20519;-48
2023/07/08 09:57:09;;;;;;;12.57;4.67;;;;;;;;;;5051483;28;20461;-48
2023/07/08 09:59:39;;;;;;;6.43;4.90;;;;;;;;;;5041265;28;20456;-50
2023/07/08 10:02:21;;;;;;;5.00;4.50;;;;;;;;;;5051777;28;20406;-49
2023/07/08 10:04:47;;;;;;;7.20;4.20;;;;;;;;;;5051379;28;20492;-50
2023/07/08 10:07:17;;;;;;;9.00;4.80;;;;;;;;;;5051296;28;20540;-48
2023/07/08 10:09:43;;;;;;;4.20;3.73;;;;;;;;;;5051261;28;20550;-48
2023/07/08 10:12:12;;;;;;;4.83;3.80;;;;;;;;;;5051275;28;20966;-48
2023/07/08 10:14:41;;;;;;;4.60;4.20;;;;;;;;;;5051308;28;20417;-48
2023/07/08 10:17:12;;;;;;;5.90;4.60;;;;;;;;;;5051191;28;20461;-48
2023/07/08 10:19:38;;;;;;;10.70;5.30;;;;;;;;;;5051164;28;20437;-48
2023/07/08 10:22:07;;;;;;;58.90;12.80;;;;;;;;;;5051208;28;20452;-48
2023/07/08 10:24:39;;;;;;;11.13;5.40;;;;;;;;;;5051007;28;20183;-50
2023/07/08 10:27:13;;;;;;;7.73;4.30;;;;;;;;;;5051178;28;20496;-50
2023/07/08 10:29:50;;;;;;;15.90;5.30;;;;;;;;;;5050861;28;20743;-50
2023/07/08 10:32:29;;;;;;;4.53;4.10;;;;;;;;;;5051005;28;20413;-48
2023/07/08 10:35:01;;;;;;;4.43;3.60;;;;;;;;;;5051067;28;20413;-48
2023/07/08 10:37:30;;;;;;;4.73;3.97;;;;;;;;;;5049507;28;20961;-48
2023/07/08 10:40:06;;;;;;;4.40;4.00;;;;;;;;;;5052555;28;20412;-50
2023/07/08 10:42:45;;;;;;;4.27;3.53;;;;;;;;;;5054986;28;20409;-48
2023/07/08 10:45:17;;;;;;;4.60;4.17;;;;;;;;;;5055052;28;20427;-47
2023/07/08 10:47:48;;;;;;;6.43;4.03;;;;;;;;;;5046901;28;20464;-48
2023/07/08 10:50:26;;;;;;;6.00;4.57;;;;;;;;;;5054699;28;20501;-48
2023/07/08 10:52:55;;;;;;;20.13;6.60;;;;;;;;;;5054905;28;20443;-50
2023/07/08 10:55:40;;;;;;;36.13;9.20;;;;;;;;;;5054682;28;20428;-47
2023/07/08 10:58:29;;;;;;;10.57;4.13;;;;;;;;;;5054931;28;20491;-48
2023/07/08 11:00:55;;;;;;;7.03;4.20;;;;;;;;;;5048762;28;20897;-48
2023/07/08 11:03:33;;;;;;;5.60;4.60;;;;;;;;;;5054502;28;20458;-48
2023/07/08 11:06:01;;;;;;;6.90;4.37;;;;;;;;;;5054573;28;20264;-48
2023/07/08 11:08:33;;;;;;;6.60;4.53;;;;;;;;;;5054470;28;20985;-48
2023/07/08 11:11:06;;;;;;;6.47;4.33;;;;;;;;;;5054371;28;20451;-50
2023/07/08 11:13:33;;;;;;;6.73;4.60;;;;;;;;;;5054311;28;20988;-50
2023/07/08 11:16:10;;;;;;;7.10;4.77;;;;;;;;;;5054425;28;20865;-51
2023/07/08 11:18:39;;;;;;;10.27;4.60;;;;;;;;;;5057508;28;20515;-50
2023/07/08 11:21:08;;;;;;;7.43;4.83;;;;;;;;;;5058608;28;20842;-49
2023/07/08 11:23:38;;;;;;;8.53;4.73;;;;;;;;;;5054153;28;20412;-49
2023/07/08 11:26:15;;;;;;;20.93;5.10;;;;;;;;;;5054419;28;20459;-50
2023/07/08 11:28:41;;;;;;;20.17;5.40;;;;;;;;;;5046537;28;20436;-50
2023/07/08 11:31:07;;;;;;;7.30;4.40;;;;;;;;;;5054012;28;20398;-51
2023/07/08 11:33:34;;;;;;;6.23;5.07;;;;;;;;;;5054171;28;20559;-50
2023/07/08 11:36:00;;;;;;;4.53;4.00;;;;;;;;;;5054132;28;20460;-49
2023/07/08 11:38:26;;;;;;;4.83;3.77;;;;;;;;;;5053957;28;20438;-50
2023/07/08 11:40:54;;;;;;;15.90;5.80;;;;;;;;;;5053931;28;20401;-49
2023/07/08 11:43:21;;;;;;;6.97;4.80;;;;;;;;;;5053941;28;20413;-51
2023/07/08 11:45:50;;;;;;;4.20;3.80;;;;;;;;;;5054143;28;20773;-49
2023/07/08 11:48:18;;;;;;;8.10;4.43;;;;;;;;;;5053879;28;20895;-52
2023/07/08 11:50:46;;;;;;;4.20;3.80;;;;;;;;;;5052910;28;20404;-51
2023/07/08 11:53:14;;;;;;;7.50;4.40;;;;;;;;;;5053760;28;20413;-50
2023/07/08 11:55:44;;;;;;;4.60;4.10;;;;;;;;;;5051896;28;20772;-50
2023/07/08 11:58:36;;;;;;;7.50;4.93;;;;;;;;;;5053772;28;20472;-51
2023/07/08 12:01:11;;;;;;;7.00;4.27;;;;;;;;;;5019363;28;20429;-51
2023/07/08 12:03:38;;;;;;;8.70;5.07;;;;;;;;;;5053466;28;20429;-52
2023/07/08 12:06:23;;;;;;;7.80;4.67;;;;;;;;;;5053628;28;20414;-49
2023/07/08 12:08:49;;;;;;;8.53;5.20;;;;;;;;;;5046911;28;20524;-50
2023/07/08 12:11:15;;;;;;;6.00;4.57;;;;;;;;;;5053217;28;20548;-50
2023/07/08 12:13:41;;;;;;;4.83;4.20;;;;;;;;;;5053463;28;20174;-48
2023/07/08 12:16:11;;;;;;;30.93;7.30;;;;;;;;;;5053320;28;20526;-49
2023/07/08 12:18:45;;;;;;;4.87;4.10;;;;;;;;;;5053301;28;20954;-50
2023/07/08 12:21:12;;;;;;;4.63;3.80;;;;;;;;;;5049626;28;20401;-49
2023/07/08 12:23:38;;;;;;;10.30;4.30;;;;;;;;;;5051057;28;20405;-50
2023/07/08 12:26:05;;;;;;;8.47;4.50;;;;;;;;;;5053362;28;20409;-50
2023/07/08 12:28:31;;;;;;;6.90;4.50;;;;;;;;;;5053198;28;20571;-49
2023/07/08 12:30:59;;;;;;;14.83;5.47;;;;;;;;;;5052908;28;20498;-48
2023/07/08 12:33:29;;;;;;;6.37;3.70;;;;;;;;;;5053156;28;20179;-48
2023/07/08 12:35:56;;;;;;;6.10;4.27;;;;;;;;;;5052737;28;20421;-49
2023/07/08 12:38:32;;;;;;;12.33;4.27;;;;;;;;;;5052766;28;20847;-47
2023/07/08 12:40:59;;;;;;;4.10;3.70;;;;;;;;;;5052691;28;20492;-46
2023/07/08 12:43:25;;;;;;;5.20;4.47;;;;;;;;;;5053238;28;20435;-47
2023/07/08 12:45:51;;;;;;;6.93;4.27;;;;;;;;;;5052560;28;20397;-48
2023/07/08 12:48:17;;;;;;;5.87;3.90;;;;;;;;;;5052533;28;20452;-46
2023/07/08 12:50:43;;;;;;;7.50;3.93;;;;;;;;;;5052441;28;20397;-47
2023/07/08 12:53:12;;;;;;;4.60;4.20;;;;;;;;;;5052598;28;20179;-46
2023/07/08 12:55:39;;;;;;;5.90;4.10;;;;;;;;;;5044472;28;20898;-47
2023/07/08 12:58:05;;;;;;;4.50;4.10;;;;;;;;;;5052408;28;20572;-49
2023/07/08 13:00:35;;;;;;;4.87;4.20;;;;;;;;;;5052156;28;20413;-48
2023/07/08 13:03:05;;;;;;;9.87;4.10;;;;;;;;;;5051979;28;20493;-48
2023/07/08 13:05:31;;;;;;;5.70;4.40;;;;;;;;;;5052605;28;20812;-47
2023/07/08 13:07:57;;;;;;;5.90;4.37;;;;;;;;;;5052201;28;20449;-48
2023/07/08 13:10:25;;;;;;;4.30;3.90;;;;;;;;;;5052057;28;20417;-45
2023/07/08 13:12:55;;;;;;;6.00;5.33;;;;;;;;;;5052274;28;20417;-47
2023/07/08 13:15:24;;;;;;;6.53;4.20;;;;;;;;;;5052448;28;20490;-45
2023/07/08 13:17:50;;;;;;;6.50;4.97;;;;;;;;;;5052286;28;20461;-45
2023/07/08 13:20:16;;;;;;;5.27;4.77;;;;;;;;;;5059980;28;20492;-45
2023/07/08 13:22:43;;;;;;;4.83;4.30;;;;;;;;;;5052085;28;20413;-44
2023/07/08 13:25:14;;;;;;;4.83;4.37;;;;;;;;;;5052118;28;20416;-44
2023/07/08 13:27:40;;;;;;;5.40;3.40;;;;;;;;;;5046660;28;20802;-45
2023/07/08 13:30:16;;;;;;;4.30;3.90;;;;;;;;;;5051637;28;20979;-46
2023/07/08 13:32:42;;;;;;;5.47;4.00;;;;;;;;;;5044361;28;20636;-47
2023/07/08 13:35:21;;;;;;;5.00;4.30;;;;;;;;;;5051753;28;20502;-44
2023/07/08 13:37:49;;;;;;;5.60;4.50;;;;;;;;;;5044801;28;20285;-44
2023/07/08 13:40:15;;;;;;;4.80;4.10;;;;;;;;;;5051517;28;20468;-45
2023/07/08 13:42:47;;;;;;;5.37;4.10;;;;;;;;;;5051678;28;20496;-45
2023/07/08 13:45:14;;;;;;;5.03;4.13;;;;;;;;;;5048285;28;20489;-48
2023/07/08 13:47:40;;;;;;;3.87;3.53;;;;;;;;;;5051667;28;20497;-44
2023/07/08 13:50:19;;;;;;;4.20;3.50;;;;;;;;;;5051505;28;20413;-44
2023/07/08 13:52:45;;;;;;;6.07;4.27;;;;;;;;;;5045312;28;20480;-44
2023/07/08 13:55:18;;;;;;;5.50;3.80;;;;;;;;;;5051419;28;20425;-44
2023/07/08 13:57:45;;;;;;;3.73;3.40;;;;;;;;;;5044082;28;20285;-45
2023/07/08 14:00:11;;;;;;;6.03;4.40;;;;;;;;;;5050214;28;20409;-44
2023/07/08 14:02:39;;;;;;;4.70;4.10;;;;;;;;;;5051408;28;20879;-44
2023/07/08 14:05:06;;;;;;;3.80;3.40;;;;;;;;;;5051466;28;20448;-45
2023/07/08 14:07:33;;;;;;;4.20;3.33;;;;;;;;;;5051169;28;20488;-44
2023/07/08 14:09:59;;;;;;;6.33;3.60;;;;;;;;;;5051243;28;20878;-45
2023/07/08 14:12:25;;;;;;;4.97;4.47;;;;;;;;;;5051524;28;20448;-47
2023/07/08 14:14:51;;;;;;;4.93;4.50;;;;;;;;;;5050562;28;20186;-47
2023/07/08 14:17:23;;;;;;;6.40;4.10;;;;;;;;;;5051166;28;20487;-44
2023/07/08 14:19:49;;;;;;;9.20;4.27;;;;;;;;;;5050990;28;20409;-44
2023/07/08 14:22:15;;;;;;;3.30;3.00;;;;;;;;;;5051178;28;20408;-45
2023/07/08 14:24:45;;;;;;;4.90;4.10;;;;;;;;;;5051273;28;20782;-43
2023/07/08 14:27:12;;;;;;;8.07;4.27;;;;;;;;;;5051481;28;20436;-44
2023/07/08 14:29:41;;;;;;;3.87;3.30;;;;;;;;;;5051208;28;20946;-44
2023/07/08 14:32:30;;;;;;;3.80;3.43;;;;;;;;;;5051257;28;20444;-44
2023/07/08 14:35:16;;;;;;;4.80;3.80;;;;;;;;;;5051240;28;20468;-44
2023/07/08 14:37:42;;;;;;;4.60;3.97;;;;;;;;;;5050872;28;20477;-44
2023/07/08 14:40:24;;;;;;;7.43;4.60;;;;;;;;;;5050922;28;20930;-44
2023/07/08 14:42:53;;;;;;;4.47;3.87;;;;;;;;;;5044415;28;20413;-45
2023/07/08 14:45:19;;;;;;;5.80;4.00;;;;;;;;;;5051243;28;20850;-44
2023/07/08 14:47:45;;;;;;;5.30;4.80;;;;;;;;;;5050999;28;21013;-45